sensor_id;sensor_type;location;lat;lon;timestamp;temperature;humidity
6355;DHT22;3210;48.708;9.030;2024-01-06T00:02:26;3.40;99.90
6355;DHT22;3210;48.708;9.030;2024-01-06T00:04:54;3.40;99.90
6355;DHT22;3210;48.708;9.030;2024-01-06T00:07:24;3.30;99.90
6355;DHT22;3210;48.708;9.030;2024-01-06T00:09:52;3.30;99.90
6355;DHT22;3210;48.708;9.030;2024-01-06T00:12:21;3.30;99.90
6355;DHT22;3210;48.708;9.030;2024-01-06T00:14:48;3.30;99.90
6355;DHT22;3210;48.708;9.030;2024-01-06T00:17:16;3.30;1.00
6355;DHT22;3210;48.708;9.030;2024-01-06T00:19:47;3.30;1.00
6355;DHT22;3210;48.708;9.030;2024-01-06T00:22:22;3.20;1.00
6355;DHT22;3210;48.708;9.030;2024-01-06T00:24:49;3.20;1.00
6355;DHT22;3210;48.708;9.030;2024-01-06T00:27:16;3.20;1.00
6355;DHT22;3210;48.708;9.030;2024-01-06T00:29:43;3.20;1.00
6355;DHT22;3210;48.708;9.030;2024-01-06T00:32:11;3.20;1.00
6355;DHT22;3210;48.708;9.030;2024-01-06T00:34:38;3.20;1.00
6355;DHT22;3210;48.708;9.030;2024-01-06T00:37:07;3.20;1.00
6355;DHT22;3210;48.708;9.030;2024-01-06T00:39:34;3.10;1.00
6355;DHT22;3210;48.708;9.030;2024-01-06T00:42:02;3.20;1.00
6355;DHT22;3210;48.708;9.030;2024-01-06T00:44:30;3.20;1.00
6355;DHT22;3210;48.708;9.030;2024-01-06T00:46:58;3.20;1.00
6355;DHT22;3210;48.708;9.030;2024-01-06T00:49:25;3.20;1.00
6355;DHT22;3210;48.708;9.030;2024-01-06T00:51:52;3.20;1.00
6355;DHT22;3210;48.708;9.030;2024-01-06T00:54:22;3.20;1.00
6355;DHT22;3210;48.708;9.030;2024-01-06T00:56:49;3.20;1.00
6355;DHT22;3210;48.708;9.030;2024-01-06T00:59:17;3.20;1.00
6355;DHT22;3210;48.708;9.030;2024-01-06T01:01:44;3.30;1.00
6355;DHT22;3210;48.708;9.030;2024-01-06T01:04:11;3.20;1.00
6355;DHT22;3210;48.708;9.030;2024-01-06T01:06:38;3.10;1.00
6355;DHT22;3210;48.708;9.030;2024-01-06T01:09:06;3.10;1.00
6355;DHT22;3210;48.708;9.030;2024-01-06T01:11:36;3.10;1.00
6355;DHT22;3210;48.708;9.030;2024-01-06T01:14:03;3.10;1.00
6355;DHT22;3210;48.708;9.030;2024-01-06T01:16:31;3.10;1.00
6355;DHT22;3210;48.708;9.030;2024-01-06T01:18:58;3.10;15.00
6355;DHT22;3210;48.708;9.030;2024-01-06T01:21:27;3.10;1.00
6355;DHT22;3210;48.708;9.030;2024-01-06T01:23:54;3.20;99.90
6355;DHT22;3210;48.708;9.030;2024-01-06T01:26:21;3.10;99.90
6355;DHT22;3210;48.708;9.030;2024-01-06T01:28:50;3.10;99.90
6355;DHT22;3210;48.708;9.030;2024-01-06T01:31:17;3.10;99.90
6355;DHT22;3210;48.708;9.030;2024-01-06T01:33:44;3.10;99.90
6355;DHT22;3210;48.708;9.030;2024-01-06T01:36:12;3.10;1.00
6355;DHT22;3210;48.708;9.030;2024-01-06T01:38:39;3.00;1.00
6355;DHT22;3210;48.708;9.030;2024-01-06T01:41:07;3.10;99.90
6355;DHT22;3210;48.708;9.030;2024-01-06T01:43:34;3.00;99.90
6355;DHT22;3210;48.708;9.030;2024-01-06T01:46:03;3.00;1.00
6355;DHT22;3210;48.708;9.030;2024-01-06T01:48:30;3.10;99.90
6355;DHT22;3210;48.708;9.030;2024-01-06T01:50:59;3.10;99.90
6355;DHT22;3210;48.708;9.030;2024-01-06T01:53:29;3.00;99.90
6355;DHT22;3210;48.708;9.030;2024-01-06T01:55:59;3.00;99.90
6355;DHT22;3210;48.708;9.030;2024-01-06T01:58:27;3.00;99.90
6355;DHT22;3210;48.708;9.030;2024-01-06T02:00:54;3.00;99.90
6355;DHT22;3210;48.708;9.030;2024-01-06T02:03:22;3.00;99.90
6355;DHT22;3210;48.708;9.030;2024-01-06T02:05:51;3.00;99.90
6355;DHT22;3210;48.708;9.030;2024-01-06T02:08:19;3.10;99.90
6355;DHT22;3210;48.708;9.030;2024-01-06T02:10:46;3.00;99.90
6355;DHT22;3210;48.708;9.030;2024-01-06T02:13:13;3.00;99.90
6355;DHT22;3210;48.708;9.030;2024-01-06T02:15:41;3.10;99.90
6355;DHT22;3210;48.708;9.030;2024-01-06T02:18:08;3.00;99.90
6355;DHT22;3210;48.708;9.030;2024-01-06T02:20:39;3.10;99.90
6355;DHT22;3210;48.708;9.030;2024-01-06T02:23:12;3.10;99.90
6355;DHT22;3210;48.708;9.030;2024-01-06T02:25:40;3.10;99.90
6355;DHT22;3210;48.708;9.030;2024-01-06T02:28:09;3.10;99.90
6355;DHT22;3210;48.708;9.030;2024-01-06T02:30:38;3.00;99.90
6355;DHT22;3210;48.708;9.030;2024-01-06T02:33:05;3.10;99.90
6355;DHT22;3210;48.708;9.030;2024-01-06T02:35:33;3.10;99.90
6355;DHT22;3210;48.708;9.030;2024-01-06T02:38:00;3.10;99.90
6355;DHT22;3210;48.708;9.030;2024-01-06T02:40:32;3.00;99.90
6355;DHT22;3210;48.708;9.030;2024-01-06T02:42:59;3.00;99.90
6355;DHT22;3210;48.708;9.030;2024-01-06T02:45:26;2.90;99.90
6355;DHT22;3210;48.708;9.030;2024-01-06T02:47:54;3.00;99.90
6355;DHT22;3210;48.708;9.030;2024-01-06T02:50:21;2.90;99.90
6355;DHT22;3210;48.708;9.030;2024-01-06T02:52:48;3.10;99.90
6355;DHT22;3210;48.708;9.030;2024-01-06T02:55:17;3.10;99.90
6355;DHT22;3210;48.708;9.030;2024-01-06T02:57:46;3.30;1.00
6355;DHT22;3210;48.708;9.030;2024-01-06T03:00:14;3.40;99.90
6355;DHT22;3210;48.708;9.030;2024-01-06T03:02:41;3.20;99.90
6355;DHT22;3210;48.708;9.030;2024-01-06T03:05:09;3.10;66.70
6355;DHT22;3210;48.708;9.030;2024-01-06T03:07:36;3.00;88.80
6355;DHT22;3210;48.708;9.030;2024-01-06T03:10:03;3.10;99.90
6355;DHT22;3210;48.708;9.030;2024-01-06T03:12:30;3.00;99.90
6355;DHT22;3210;48.708;9.030;2024-01-06T03:15:00;3.00;99.90
6355;DHT22;3210;48.708;9.030;2024-01-06T03:17:27;3.10;99.90
6355;DHT22;3210;48.708;9.030;2024-01-06T03:19:55;3.10;99.90
6355;DHT22;3210;48.708;9.030;2024-01-06T03:22:22;3.10;99.90
6355;DHT22;3210;48.708;9.030;2024-01-06T03:24:49;3.00;99.90
6355;DHT22;3210;48.708;9.030;2024-01-06T03:27:16;3.00;99.90
6355;DHT22;3210;48.708;9.030;2024-01-06T03:29:43;3.00;99.90
6355;DHT22;3210;48.708;9.030;2024-01-06T03:32:12;3.00;99.90
6355;DHT22;3210;48.708;9.030;2024-01-06T03:34:40;3.00;99.90
6355;DHT22;3210;48.708;9.030;2024-01-06T03:37:08;2.90;99.90
6355;DHT22;3210;48.708;9.030;2024-01-06T03:39:35;2.90;99.90
6355;DHT22;3210;48.708;9.030;2024-01-06T03:42:02;3.00;99.90
6355;DHT22;3210;48.708;9.030;2024-01-06T03:44:29;2.90;99.90
6355;DHT22;3210;48.708;9.030;2024-01-06T03:46:59;2.90;99.90
6355;DHT22;3210;48.708;9.030;2024-01-06T03:49:28;2.90;99.90
6355;DHT22;3210;48.708;9.030;2024-01-06T03:51:56;2.90;1.00
6355;DHT22;3210;48.708;9.030;2024-01-06T03:54:23;2.90;1.00
6355;DHT22;3210;48.708;9.030;2024-01-06T03:56:50;2.90;1.00
6355;DHT22;3210;48.708;9.030;2024-01-06T03:59:20;2.90;1.00
6355;DHT22;3210;48.708;9.030;2024-01-06T04:01:48;2.80;1.00
6355;DHT22;3210;48.708;9.030;2024-01-06T04:04:15;2.80;1.00
6355;DHT22;3210;48.708;9.030;2024-01-06T04:06:44;2.80;19.80
6355;DHT22;3210;48.708;9.030;2024-01-06T04:09:12;2.80;57.10
6355;DHT22;3210;48.708;9.030;2024-01-06T04:11:39;2.70;74.40
6355;DHT22;3210;48.708;9.030;2024-01-06T04:14:06;2.80;99.90
6355;DHT22;3210;48.708;9.030;2024-01-06T04:16:33;2.80;1.00
6355;DHT22;3210;48.708;9.030;2024-01-06T04:19:00;2.80;1.00
6355;DHT22;3210;48.708;9.030;2024-01-06T04:21:30;2.80;1.00
6355;DHT22;3210;48.708;9.030;2024-01-06T04:23:59;2.80;1.00
6355;DHT22;3210;48.708;9.030;2024-01-06T04:26:26;2.80;1.00
6355;DHT22;3210;48.708;9.030;2024-01-06T04:28:55;2.80;1.00
6355;DHT22;3210;48.708;9.030;2024-01-06T04:31:22;2.70;1.00
6355;DHT22;3210;48.708;9.030;2024-01-06T04:33:51;2.70;1.00
6355;DHT22;3210;48.708;9.030;2024-01-06T04:36:18;2.80;1.00
6355;DHT22;3210;48.708;9.030;2024-01-06T04:38:45;2.80;1.00
6355;DHT22;3210;48.708;9.030;2024-01-06T04:41:17;2.70;1.00
6355;DHT22;3210;48.708;9.030;2024-01-06T04:43:45;2.70;1.00
6355;DHT22;3210;48.708;9.030;2024-01-06T04:46:15;2.60;1.00
6355;DHT22;3210;48.708;9.030;2024-01-06T04:48:42;2.60;1.00
6355;DHT22;3210;48.708;9.030;2024-01-06T04:51:10;2.70;1.00
6355;DHT22;3210;48.708;9.030;2024-01-06T04:53:40;2.60;1.00
6355;DHT22;3210;48.708;9.030;2024-01-06T04:56:07;2.70;1.00
6355;DHT22;3210;48.708;9.030;2024-01-06T04:58:37;2.70;99.90
6355;DHT22;3210;48.708;9.030;2024-01-06T05:01:04;2.60;99.90
6355;DHT22;3210;48.708;9.030;2024-01-06T05:03:32;2.60;99.90
6355;DHT22;3210;48.708;9.030;2024-01-06T05:06:01;2.70;99.90
6355;DHT22;3210;48.708;9.030;2024-01-06T05:08:28;2.70;99.90
6355;DHT22;3210;48.708;9.030;2024-01-06T05:10:56;2.70;99.90
6355;DHT22;3210;48.708;9.030;2024-01-06T05:13:24;2.70;99.90
6355;DHT22;3210;48.708;9.030;2024-01-06T05:15:53;2.70;99.90
6355;DHT22;3210;48.708;9.030;2024-01-06T05:18:20;2.80;99.90
6355;DHT22;3210;48.708;9.030;2024-01-06T05:20:47;2.70;99.90
6355;DHT22;3210;48.708;9.030;2024-01-06T05:23:14;2.80;99.90
6355;DHT22;3210;48.708;9.030;2024-01-06T05:25:43;2.80;99.90
6355;DHT22;3210;48.708;9.030;2024-01-06T05:28:11;2.80;99.90
6355;DHT22;3210;48.708;9.030;2024-01-06T05:30:38;2.70;99.90
6355;DHT22;3210;48.708;9.030;2024-01-06T05:33:10;2.80;99.90
6355;DHT22;3210;48.708;9.030;2024-01-06T05:35:41;3.00;1.00
6355;DHT22;3210;48.708;9.030;2024-01-06T05:38:08;2.90;1.00
6355;DHT22;3210;48.708;9.030;2024-01-06T05:40:35;2.80;1.00
6355;DHT22;3210;48.708;9.030;2024-01-06T05:43:04;2.80;1.00
6355;DHT22;3210;48.708;9.030;2024-01-06T05:45:32;2.90;1.00
6355;DHT22;3210;48.708;9.030;2024-01-06T05:47:59;2.90;99.90
6355;DHT22;3210;48.708;9.030;2024-01-06T05:50:29;2.90;1.00
6355;DHT22;3210;48.708;9.030;2024-01-06T05:52:56;3.00;1.00
6355;DHT22;3210;48.708;9.030;2024-01-06T05:55:23;2.90;1.00
6355;DHT22;3210;48.708;9.030;2024-01-06T05:57:51;2.90;1.00
6355;DHT22;3210;48.708;9.030;2024-01-06T06:00:18;2.90;1.00
6355;DHT22;3210;48.708;9.030;2024-01-06T06:02:45;3.00;1.00
6355;DHT22;3210;48.708;9.030;2024-01-06T06:05:13;2.90;1.00
6355;DHT22;3210;48.708;9.030;2024-01-06T06:07:46;3.00;1.00
6355;DHT22;3210;48.708;9.030;2024-01-06T06:10:13;2.90;1.00
6355;DHT22;3210;48.708;9.030;2024-01-06T06:12:41;3.10;1.00
6355;DHT22;3210;48.708;9.030;2024-01-06T06:15:09;3.00;1.00
6355;DHT22;3210;48.708;9.030;2024-01-06T06:17:36;3.10;99.90
6355;DHT22;3210;48.708;9.030;2024-01-06T06:20:04;3.10;99.90
6355;DHT22;3210;48.708;9.030;2024-01-06T06:22:33;3.10;99.90
6355;DHT22;3210;48.708;9.030;2024-01-06T06:25:06;3.10;99.90
6355;DHT22;3210;48.708;9.030;2024-01-06T06:27:34;3.10;99.90
6355;DHT22;3210;48.708;9.030;2024-01-06T06:30:10;3.10;99.90
6355;DHT22;3210;48.708;9.030;2024-01-06T06:32:57;3.20;99.90
6355;DHT22;3210;48.708;9.030;2024-01-06T06:35:47;3.20;99.90
6355;DHT22;3210;48.708;9.030;2024-01-06T06:38:18;3.20;99.90
6355;DHT22;3210;48.708;9.030;2024-01-06T06:40:48;3.20;99.90
6355;DHT22;3210;48.708;9.030;2024-01-06T06:43:15;3.20;99.90
6355;DHT22;3210;48.708;9.030;2024-01-06T06:45:42;3.20;99.90
6355;DHT22;3210;48.708;9.030;2024-01-06T06:48:09;3.30;99.90
6355;DHT22;3210;48.708;9.030;2024-01-06T06:50:36;3.20;99.90
6355;DHT22;3210;48.708;9.030;2024-01-06T06:53:06;3.20;99.90
6355;DHT22;3210;48.708;9.030;2024-01-06T06:55:33;3.20;99.90
6355;DHT22;3210;48.708;9.030;2024-01-06T06:58:05;3.30;99.90
6355;DHT22;3210;48.708;9.030;2024-01-06T07:00:32;3.30;15.70
6355;DHT22;3210;48.708;9.030;2024-01-06T07:03:52;3.40;1.00
6355;DHT22;3210;48.708;9.030;2024-01-06T07:06:01;3.50;99.90
6355;DHT22;3210;48.708;9.030;2024-01-06T07:08:29;3.60;1.00
6355;DHT22;3210;48.708;9.030;2024-01-06T07:10:56;3.70;1.00
6355;DHT22;3210;48.708;9.030;2024-01-06T07:13:24;3.70;1.00
6355;DHT22;3210;48.708;9.030;2024-01-06T07:15:52;3.60;1.00
6355;DHT22;3210;48.708;9.030;2024-01-06T07:18:19;3.70;1.00
6355;DHT22;3210;48.708;9.030;2024-01-06T07:20:48;3.60;1.00
6355;DHT22;3210;48.708;9.030;2024-01-06T07:23:16;3.70;1.00
6355;DHT22;3210;48.708;9.030;2024-01-06T07:25:43;3.60;1.00
6355;DHT22;3210;48.708;9.030;2024-01-06T07:28:10;3.60;1.00
6355;DHT22;3210;48.708;9.030;2024-01-06T07:30:39;3.60;1.00
6355;DHT22;3210;48.708;9.030;2024-01-06T07:33:06;3.70;1.00
6355;DHT22;3210;48.708;9.030;2024-01-06T07:35:34;3.70;1.00
6355;DHT22;3210;48.708;9.030;2024-01-06T07:38:00;3.80;99.90
6355;DHT22;3210;48.708;9.030;2024-01-06T07:40:28;3.80;99.90
6355;DHT22;3210;48.708;9.030;2024-01-06T07:42:55;3.70;99.90
6355;DHT22;3210;48.708;9.030;2024-01-06T07:45:23;3.70;1.00
6355;DHT22;3210;48.708;9.030;2024-01-06T07:47:54;3.80;99.90
6355;DHT22;3210;48.708;9.030;2024-01-06T07:50:22;3.90;99.90
6355;DHT22;3210;48.708;9.030;2024-01-06T07:52:49;3.90;99.90
6355;DHT22;3210;48.708;9.030;2024-01-06T07:55:17;3.80;99.90
6355;DHT22;3210;48.708;9.030;2024-01-06T07:57:44;4.10;99.90
6355;DHT22;3210;48.708;9.030;2024-01-06T08:00:12;3.90;99.90
6355;DHT22;3210;48.708;9.030;2024-01-06T08:02:41;3.90;99.90
6355;DHT22;3210;48.708;9.030;2024-01-06T08:05:09;3.80;99.90
6355;DHT22;3210;48.708;9.030;2024-01-06T08:07:37;4.00;99.90
6355;DHT22;3210;48.708;9.030;2024-01-06T08:10:05;3.90;99.90
6355;DHT22;3210;48.708;9.030;2024-01-06T08:12:32;3.90;99.90
6355;DHT22;3210;48.708;9.030;2024-01-06T08:15:00;4.00;99.90
6355;DHT22;3210;48.708;9.030;2024-01-06T08:17:27;4.10;99.90
6355;DHT22;3210;48.708;9.030;2024-01-06T08:19:54;4.10;99.90
6355;DHT22;3210;48.708;9.030;2024-01-06T08:22:22;4.10;99.90
6355;DHT22;3210;48.708;9.030;2024-01-06T08:24:50;4.10;99.90
6355;DHT22;3210;48.708;9.030;2024-01-06T08:27:17;4.10;99.90
6355;DHT22;3210;48.708;9.030;2024-01-06T08:29:44;4.20;99.90
6355;DHT22;3210;48.708;9.030;2024-01-06T08:32:11;4.20;99.90
6355;DHT22;3210;48.708;9.030;2024-01-06T08:34:40;4.30;99.90
6355;DHT22;3210;48.708;9.030;2024-01-06T08:37:07;4.30;99.90
6355;DHT22;3210;48.708;9.030;2024-01-06T08:39:35;4.30;99.90
6355;DHT22;3210;48.708;9.030;2024-01-06T08:42:03;4.40;99.90
6355;DHT22;3210;48.708;9.030;2024-01-06T08:44:30;4.50;99.90
6355;DHT22;3210;48.708;9.030;2024-01-06T08:46:57;4.50;99.90
6355;DHT22;3210;48.708;9.030;2024-01-06T08:49:24;4.50;99.90
6355;DHT22;3210;48.708;9.030;2024-01-06T08:51:51;4.60;99.90
6355;DHT22;3210;48.708;9.030;2024-01-06T08:54:18;4.60;99.90
6355;DHT22;3210;48.708;9.030;2024-01-06T08:56:46;4.50;99.90
6355;DHT22;3210;48.708;9.030;2024-01-06T08:59:13;4.40;99.90
6355;DHT22;3210;48.708;9.030;2024-01-06T09:01:40;4.40;99.90
6355;DHT22;3210;48.708;9.030;2024-01-06T09:04:07;4.50;99.90
6355;DHT22;3210;48.708;9.030;2024-01-06T09:06:36;4.50;99.90
6355;DHT22;3210;48.708;9.030;2024-01-06T09:09:03;4.50;99.90
6355;DHT22;3210;48.708;9.030;2024-01-06T09:11:31;4.60;99.90
6355;DHT22;3210;48.708;9.030;2024-01-06T09:13:59;4.60;99.90
6355;DHT22;3210;48.708;9.030;2024-01-06T09:16:27;4.60;99.90
6355;DHT22;3210;48.708;9.030;2024-01-06T09:18:54;4.70;99.90
6355;DHT22;3210;48.708;9.030;2024-01-06T09:21:21;4.70;99.90
6355;DHT22;3210;48.708;9.030;2024-01-06T09:23:48;4.90;99.90
6355;DHT22;3210;48.708;9.030;2024-01-06T09:26:15;4.80;99.90
6355;DHT22;3210;48.708;9.030;2024-01-06T09:28:42;4.80;99.90
6355;DHT22;3210;48.708;9.030;2024-01-06T09:31:11;4.80;99.90
6355;DHT22;3210;48.708;9.030;2024-01-06T09:33:39;4.80;99.90
6355;DHT22;3210;48.708;9.030;2024-01-06T09:36:06;4.70;99.90
6355;DHT22;3210;48.708;9.030;2024-01-06T09:38:37;4.80;99.90
6355;DHT22;3210;48.708;9.030;2024-01-06T09:41:04;4.80;99.90
6355;DHT22;3210;48.708;9.030;2024-01-06T09:43:31;4.90;99.90
6355;DHT22;3210;48.708;9.030;2024-01-06T09:46:06;4.80;99.90
6355;DHT22;3210;48.708;9.030;2024-01-06T09:48:40;4.80;99.90
6355;DHT22;3210;48.708;9.030;2024-01-06T09:51:10;4.90;99.90
6355;DHT22;3210;48.708;9.030;2024-01-06T09:53:44;5.00;99.90
6355;DHT22;3210;48.708;9.030;2024-01-06T09:56:15;5.10;99.90
6355;DHT22;3210;48.708;9.030;2024-01-06T09:58:42;5.10;99.90
6355;DHT22;3210;48.708;9.030;2024-01-06T10:01:11;5.20;99.90
6355;DHT22;3210;48.708;9.030;2024-01-06T10:03:39;5.10;99.90
6355;DHT22;3210;48.708;9.030;2024-01-06T10:06:07;5.20;99.90
6355;DHT22;3210;48.708;9.030;2024-01-06T10:08:36;5.10;99.90
6355;DHT22;3210;48.708;9.030;2024-01-06T10:11:06;5.10;99.90
6355;DHT22;3210;48.708;9.030;2024-01-06T10:13:39;5.10;99.90
6355;DHT22;3210;48.708;9.030;2024-01-06T10:16:07;5.20;99.90
6355;DHT22;3210;48.708;9.030;2024-01-06T10:18:34;5.20;99.90
6355;DHT22;3210;48.708;9.030;2024-01-06T10:21:05;5.10;99.90
6355;DHT22;3210;48.708;9.030;2024-01-06T10:23:33;5.20;99.90
6355;DHT22;3210;48.708;9.030;2024-01-06T10:26:03;5.20;99.90
6355;DHT22;3210;48.708;9.030;2024-01-06T10:28:31;5.30;99.90
6355;DHT22;3210;48.708;9.030;2024-01-06T10:30:58;5.20;99.90
6355;DHT22;3210;48.708;9.030;2024-01-06T10:37:06;5.30;99.90
6355;DHT22;3210;48.708;9.030;2024-01-06T10:39:33;5.20;99.90
6355;DHT22;3210;48.708;9.030;2024-01-06T10:42:01;5.20;99.90
6355;DHT22;3210;48.708;9.030;2024-01-06T10:44:29;5.30;99.90
6355;DHT22;3210;48.708;9.030;2024-01-06T10:46:58;5.20;99.90
6355;DHT22;3210;48.708;9.030;2024-01-06T10:49:27;5.10;99.90
6355;DHT22;3210;48.708;9.030;2024-01-06T10:51:56;5.20;99.90
6355;DHT22;3210;48.708;9.030;2024-01-06T10:54:33;5.10;99.90
6355;DHT22;3210;48.708;9.030;2024-01-06T10:57:02;5.20;99.90
6355;DHT22;3210;48.708;9.030;2024-01-06T10:59:33;5.10;99.90
6355;DHT22;3210;48.708;9.030;2024-01-06T11:02:01;5.10;99.90
6355;DHT22;3210;48.708;9.030;2024-01-06T11:04:31;5.10;99.90
6355;DHT22;3210;48.708;9.030;2024-01-06T11:06:59;5.00;99.90
6355;DHT22;3210;48.708;9.030;2024-01-06T11:09:31;5.00;99.90
6355;DHT22;3210;48.708;9.030;2024-01-06T11:12:01;5.00;99.90
6355;DHT22;3210;48.708;9.030;2024-01-06T11:14:29;5.10;99.90
6355;DHT22;3210;48.708;9.030;2024-01-06T11:16:59;5.20;99.90
6355;DHT22;3210;48.708;9.030;2024-01-06T11:19:44;5.30;99.90
6355;DHT22;3210;48.708;9.030;2024-01-06T11:22:20;5.30;99.90
6355;DHT22;3210;48.708;9.030;2024-01-06T11:24:51;5.40;99.90
6355;DHT22;3210;48.708;9.030;2024-01-06T11:27:18;5.40;99.90
6355;DHT22;3210;48.708;9.030;2024-01-06T11:29:47;5.30;99.90
6355;DHT22;3210;48.708;9.030;2024-01-06T11:32:25;5.40;99.90
6355;DHT22;3210;48.708;9.030;2024-01-06T11:34:53;5.40;99.90
6355;DHT22;3210;48.708;9.030;2024-01-06T11:37:27;5.40;99.90
6355;DHT22;3210;48.708;9.030;2024-01-06T11:40:04;5.40;99.90
6355;DHT22;3210;48.708;9.030;2024-01-06T11:42:42;5.50;99.90
6355;DHT22;3210;48.708;9.030;2024-01-06T11:45:10;5.50;99.90
6355;DHT22;3210;48.708;9.030;2024-01-06T11:47:38;5.50;95.70
6355;DHT22;3210;48.708;9.030;2024-01-06T11:50:07;5.50;99.90
6355;DHT22;3210;48.708;9.030;2024-01-06T11:52:34;5.50;99.90
6355;DHT22;3210;48.708;9.030;2024-01-06T11:55:05;5.70;99.90
6355;DHT22;3210;48.708;9.030;2024-01-06T11:57:34;5.70;97.80
6355;DHT22;3210;48.708;9.030;2024-01-06T12:00:05;5.80;93.50
6355;DHT22;3210;48.708;9.030;2024-01-06T12:02:34;5.70;94.40
6355;DHT22;3210;48.708;9.030;2024-01-06T12:05:18;5.70;99.90
6355;DHT22;3210;48.708;9.030;2024-01-06T12:07:53;5.70;68.00
6355;DHT22;3210;48.708;9.030;2024-01-06T12:10:25;5.60;99.90
6355;DHT22;3210;48.708;9.030;2024-01-06T12:12:57;5.60;92.60
6355;DHT22;3210;48.708;9.030;2024-01-06T12:15:25;5.70;99.90
6355;DHT22;3210;48.708;9.030;2024-01-06T12:17:54;5.60;99.90
6355;DHT22;3210;48.708;9.030;2024-01-06T12:20:26;5.60;99.90
6355;DHT22;3210;48.708;9.030;2024-01-06T12:23:13;5.60;93.10
6355;DHT22;3210;48.708;9.030;2024-01-06T12:26:10;5.50;99.90
6355;DHT22;3210;48.708;9.030;2024-01-06T16:48:26;4.00;99.90
6355;DHT22;3210;48.708;9.030;2024-01-06T16:50:53;3.90;99.90
6355;DHT22;3210;48.708;9.030;2024-01-06T16:53:20;3.90;99.90
6355;DHT22;3210;48.708;9.030;2024-01-06T16:55:48;4.00;99.90
6355;DHT22;3210;48.708;9.030;2024-01-06T16:58:17;4.00;1.00
6355;DHT22;3210;48.708;9.030;2024-01-06T17:00:44;4.10;1.00
6355;DHT22;3210;48.708;9.030;2024-01-06T17:03:26;4.10;1.00
6355;DHT22;3210;48.708;9.030;2024-01-06T17:05:55;4.00;99.90
6355;DHT22;3210;48.708;9.030;2024-01-06T17:08:22;4.00;1.00
6355;DHT22;3210;48.708;9.030;2024-01-06T17:10:49;4.10;99.90
6355;DHT22;3210;48.708;9.030;2024-01-06T17:13:16;4.20;99.90
6355;DHT22;3210;48.708;9.030;2024-01-06T17:15:45;4.10;99.90
6355;DHT22;3210;48.708;9.030;2024-01-06T17:18:12;4.20;99.90
6355;DHT22;3210;48.708;9.030;2024-01-06T17:20:40;4.10;99.90
6355;DHT22;3210;48.708;9.030;2024-01-06T17:23:09;4.20;99.90
6355;DHT22;3210;48.708;9.030;2024-01-06T17:25:38;4.20;99.90
6355;DHT22;3210;48.708;9.030;2024-01-06T17:28:05;4.10;14.80
6355;DHT22;3210;48.708;9.030;2024-01-06T17:30:34;4.00;98.50
6355;DHT22;3210;48.708;9.030;2024-01-06T17:33:03;4.00;99.90
6355;DHT22;3210;48.708;9.030;2024-01-06T17:35:30;3.90;99.90
6355;DHT22;3210;48.708;9.030;2024-01-06T17:37:57;3.90;1.00
6355;DHT22;3210;48.708;9.030;2024-01-06T17:40:28;3.90;1.00
6355;DHT22;3210;48.708;9.030;2024-01-06T17:42:56;4.00;1.00
6355;DHT22;3210;48.708;9.030;2024-01-06T17:45:23;4.00;1.00
6355;DHT22;3210;48.708;9.030;2024-01-06T17:47:50;4.10;99.90
6355;DHT22;3210;48.708;9.030;2024-01-06T17:50:17;4.10;99.90
6355;DHT22;3210;48.708;9.030;2024-01-06T17:52:44;4.10;37.80
6355;DHT22;3210;48.708;9.030;2024-01-06T17:55:11;4.00;2.40
6355;DHT22;3210;48.708;9.030;2024-01-06T17:57:40;4.00;11.20
6355;DHT22;3210;48.708;9.030;2024-01-06T18:00:08;4.10;1.00
6355;DHT22;3210;48.708;9.030;2024-01-06T18:02:38;4.00;1.00
6355;DHT22;3210;48.708;9.030;2024-01-06T18:05:06;4.00;1.00
6355;DHT22;3210;48.708;9.030;2024-01-06T18:07:33;4.10;1.00
6355;DHT22;3210;48.708;9.030;2024-01-06T18:10:01;4.10;1.00
6355;DHT22;3210;48.708;9.030;2024-01-06T18:12:29;4.00;1.00
6355;DHT22;3210;48.708;9.030;2024-01-06T18:15:00;4.20;1.00
6355;DHT22;3210;48.708;9.030;2024-01-06T18:17:29;4.10;1.00
6355;DHT22;3210;48.708;9.030;2024-01-06T18:20:01;4.10;1.00
6355;DHT22;3210;48.708;9.030;2024-01-06T18:22:31;4.20;1.00
6355;DHT22;3210;48.708;9.030;2024-01-06T18:24:58;3.90;99.90
6355;DHT22;3210;48.708;9.030;2024-01-06T18:27:25;4.10;99.90
6355;DHT22;3210;48.708;9.030;2024-01-06T18:29:53;4.20;99.90
6355;DHT22;3210;48.708;9.030;2024-01-06T18:32:39;4.10;99.90
6355;DHT22;3210;48.708;9.030;2024-01-06T18:35:08;4.20;1.00
6355;DHT22;3210;48.708;9.030;2024-01-06T18:37:40;4.10;1.00
6355;DHT22;3210;48.708;9.030;2024-01-06T18:40:08;4.00;1.00
6355;DHT22;3210;48.708;9.030;2024-01-06T18:42:36;4.00;99.90
6355;DHT22;3210;48.708;9.030;2024-01-06T18:45:33;4.00;99.90
6355;DHT22;3210;48.708;9.030;2024-01-06T18:48:01;3.80;1.00
6355;DHT22;3210;48.708;9.030;2024-01-06T18:50:31;3.80;99.90
6355;DHT22;3210;48.708;9.030;2024-01-06T18:52:59;3.80;99.90
6355;DHT22;3210;48.708;9.030;2024-01-06T18:55:40;3.90;1.00
6355;DHT22;3210;48.708;9.030;2024-01-06T18:58:10;3.90;1.00
6355;DHT22;3210;48.708;9.030;2024-01-06T19:00:39;4.00;1.00
6355;DHT22;3210;48.708;9.030;2024-01-06T19:03:09;4.00;1.00
6355;DHT22;3210;48.708;9.030;2024-01-06T19:08:30;3.90;99.90
6355;DHT22;3210;48.708;9.030;2024-01-06T19:11:52;3.90;1.00
6355;DHT22;3210;48.708;9.030;2024-01-06T19:14:24;4.00;99.90
6355;DHT22;3210;48.708;9.030;2024-01-06T19:16:51;4.00;1.00
6355;DHT22;3210;48.708;9.030;2024-01-06T19:19:41;4.00;1.00
6355;DHT22;3210;48.708;9.030;2024-01-06T19:22:08;4.00;1.00
6355;DHT22;3210;48.708;9.030;2024-01-06T19:25:08;4.00;1.00
6355;DHT22;3210;48.708;9.030;2024-01-06T19:27:38;4.00;1.00
6355;DHT22;3210;48.708;9.030;2024-01-06T19:30:39;3.90;1.00
6355;DHT22;3210;48.708;9.030;2024-01-06T19:33:20;4.10;99.90
6355;DHT22;3210;48.708;9.030;2024-01-06T19:41:38;4.30;99.90
6355;DHT22;3210;48.708;9.030;2024-01-06T19:44:11;4.20;1.00
6355;DHT22;3210;48.708;9.030;2024-01-06T19:50:30;4.20;99.90
6355;DHT22;3210;48.708;9.030;2024-01-06T19:55:43;4.00;1.00
6355;DHT22;3210;48.708;9.030;2024-01-06T19:58:12;4.00;1.00
6355;DHT22;3210;48.708;9.030;2024-01-06T20:03:16;4.00;99.90
6355;DHT22;3210;48.708;9.030;2024-01-06T20:05:51;4.00;99.90
6355;DHT22;3210;48.708;9.030;2024-01-06T20:08:50;3.90;99.90
6355;DHT22;3210;48.708;9.030;2024-01-06T20:14:17;3.80;99.90
6355;DHT22;3210;48.708;9.030;2024-01-06T20:16:44;3.90;99.90
6355;DHT22;3210;48.708;9.030;2024-01-06T20:19:12;4.00;1.00
6355;DHT22;3210;48.708;9.030;2024-01-06T20:24:15;4.00;99.90
6355;DHT22;3210;48.708;9.030;2024-01-06T20:26:43;3.90;99.90
6355;DHT22;3210;48.708;9.030;2024-01-06T20:48:49;4.20;1.00
6355;DHT22;3210;48.708;9.030;2024-01-06T20:51:32;4.10;1.00
6355;DHT22;3210;48.708;9.030;2024-01-06T20:54:12;4.00;1.00
6355;DHT22;3210;48.708;9.030;2024-01-06T20:57:13;4.10;1.00
6355;DHT22;3210;48.708;9.030;2024-01-06T20:59:54;4.20;1.00
6355;DHT22;3210;48.708;9.030;2024-01-06T21:05:29;4.00;1.00
6355;DHT22;3210;48.708;9.030;2024-01-06T21:08:09;4.10;1.00
6355;DHT22;3210;48.708;9.030;2024-01-06T21:10:50;4.00;1.00
6355;DHT22;3210;48.708;9.030;2024-01-06T21:13:31;4.20;1.00
6355;DHT22;3210;48.708;9.030;2024-01-06T21:16:02;4.10;1.00
6355;DHT22;3210;48.708;9.030;2024-01-06T21:18:45;4.00;1.00
6355;DHT22;3210;48.708;9.030;2024-01-06T21:21:44;3.90;54.00
6355;DHT22;3210;48.708;9.030;2024-01-06T21:31:09;3.90;99.90
6355;DHT22;3210;48.708;9.030;2024-01-06T21:46:51;3.80;99.90
6355;DHT22;3210;48.708;9.030;2024-01-06T21:49:18;3.80;1.00
6355;DHT22;3210;48.708;9.030;2024-01-06T21:51:50;3.80;1.00
6355;DHT22;3210;48.708;9.030;2024-01-06T21:54:17;3.90;1.00
6355;DHT22;3210;48.708;9.030;2024-01-06T21:56:49;4.00;99.90
6355;DHT22;3210;48.708;9.030;2024-01-06T21:59:28;4.10;99.90
6355;DHT22;3210;48.708;9.030;2024-01-06T22:11:16;3.90;99.90
6355;DHT22;3210;48.708;9.030;2024-01-06T22:16:24;4.00;99.90
6355;DHT22;3210;48.708;9.030;2024-01-06T22:18:52;4.20;93.20
6355;DHT22;3210;48.708;9.030;2024-01-06T22:24:17;4.00;1.00
6355;DHT22;3210;48.708;9.030;2024-01-06T22:26:51;3.90;1.00